Bookmark and Share
Track history (hours):
 

Edna T. Gattle

More information available from US FCC via Universal Licensing System and Coast Guard Vessel Documentation Center.

Last reported at 2014-Apr-21 12:33 UTC. Time now 2014-Apr-23 09:44 UTC.
Position N 29°46' W 091°42'.

Length 33 m; draft 2.6 m.

Type: Towing. MMSI: 367116420.

NotesDate/timePositionNaut miles runAvg speedWind from/ knotsBaromVisibWave heightAir tempDewpointWater temp
2014-Apr-21 12:33N 29°46' W 091°42'2 2.1
2014-Apr-21 11:33N 29°46' W 091°39'0 0.0
2014-Apr-21 10:29N 29°46' W 091°39'0 0.0
2014-Apr-21 09:27N 29°46' W 091°39'0 0.0
2014-Apr-21 08:32N 29°46' W 091°39'1 0.9
2014-Apr-21 07:16N 29°46' W 091°38'3 3.5
2014-Apr-21 06:33N 29°45' W 091°35'5 5.3
2014-Apr-21 05:33N 29°42' W 091°30'5 4.8
2014-Apr-21 04:31N 29°39' W 091°25'6 5.8
2014-Apr-21 03:33N 29°38' W 091°19'6 6.0
2014-Apr-21 02:33N 29°41' W 091°13'6 5.9
2014-Apr-21 01:33N 29°46' W 091°17'8 8.2
2014-Apr-21 00:33N 29°51' W 091°24'  
2014-Apr-18 03:28N 30°04' W 090°52'6 4.1
2014-Apr-18 02:07N 29°59' W 090°49'3 5.0
2014-Apr-18 01:33N 30°01' W 090°46'5 4.8
2014-Apr-18 00:33N 30°02' W 090°41'4 4.4
2014-Apr-17 23:33N 30°03' W 090°36'5 4.9
2014-Apr-17 22:33N 30°03' W 090°30'0 0.0
2014-Apr-17 14:17N 30°03' W 090°30'  

Dump ship's entire track history

sailing weather and tide predictions

Edna T. Gattle — WDD2528 — position and weather